createdAt,value
2022-11-28T02:01:38.747Z,23.67
2022-11-28T02:02:46.458Z,22.98
2022-11-28T02:03:50.304Z,23.60
2022-11-28T02:04:53.334Z,20.40
2022-11-28T02:05:57.032Z,22.23
2022-11-28T02:06:59.365Z,16.83
2022-11-28T02:08:02.625Z,15.68
2022-11-28T02:09:09.540Z,18.70
2022-11-28T02:10:17.353Z,18.75
2022-11-28T02:11:34.466Z,16.52
2022-11-28T02:12:48.730Z,17.98
2022-11-28T02:14:28.451Z,20.33
2022-11-28T02:16:03.391Z,16.27
2022-11-28T02:17:26.876Z,17.90
2022-11-28T02:18:59.712Z,14.57
2022-11-28T02:20:29.051Z,14.95
2022-11-28T02:21:44.090Z,13.82
2022-11-28T02:23:03.468Z,13.98
2022-11-28T02:24:25.535Z,10.75
2022-11-28T02:26:05.577Z,11.20
2022-11-28T02:27:26.561Z,11.27
2022-11-28T02:28:49.945Z,11.73
2022-11-28T02:30:21.208Z,12.13
2022-11-28T02:32:02.066Z,12.80
2022-11-28T02:33:09.542Z,13.75
2022-11-28T02:34:30.825Z,13.10
2022-11-28T02:35:40.396Z,11.13
2022-11-28T02:36:51.191Z,12.32
2022-11-28T02:37:56.111Z,11.75
2022-11-28T02:39:08.356Z,10.18
2022-11-28T02:40:42.742Z,10.25
2022-11-28T02:41:54.745Z,12.18
2022-11-28T02:42:59.625Z,8.93
2022-11-28T02:44:19.066Z,11.13
2022-11-28T02:45:45.681Z,10.15
2022-11-28T02:46:50.890Z,11.75
2022-11-28T02:48:05.601Z,10.70
2022-11-28T02:49:15.863Z,11.05
2022-11-28T02:50:33.914Z,10.10
2022-11-28T02:51:41.798Z,9.50
2022-11-28T02:52:51.438Z,8.65
2022-11-28T02:53:55.066Z,9.80
2022-11-28T02:54:58.610Z,7.18
2022-11-28T02:56:01.029Z,10.30
2022-11-28T02:57:03.390Z,7.68
2022-11-28T02:58:05.789Z,10.80
2022-11-28T02:59:28.210Z,9.65
2022-11-28T03:00:36.128Z,9.32
2022-11-28T03:01:39.127Z,10.85
2022-11-28T03:02:43.707Z,11.27
2022-11-28T03:04:12.785Z,10.93
2022-11-28T03:05:27.106Z,9.90
2022-11-28T03:07:06.268Z,8.85
2022-11-28T03:08:17.425Z,10.95
2022-11-28T03:09:41.086Z,11.73
2022-11-28T03:11:01.894Z,10.38
2022-11-28T03:12:15.824Z,9.23
2022-11-28T03:13:41.724Z,9.93
2022-11-28T03:14:53.984Z,12.55
2022-11-28T03:16:06.175Z,11.52
2022-11-28T03:17:32.216Z,9.63
2022-11-28T03:18:45.973Z,9.63
2022-11-28T03:20:22.108Z,14.48
2022-11-28T03:21:55.594Z,10.25
2022-11-28T03:24:02.885Z,12.30
2022-11-28T03:25:21.514Z,13.27
2022-11-28T03:26:34.837Z,8.55
2022-11-28T03:27:51.662Z,13.52
2022-11-28T03:29:02.756Z,10.77
2022-11-28T03:30:24.820Z,11.45
2022-11-28T03:31:35.177Z,11.20
2022-11-28T03:32:40.575Z,10.75
2022-11-28T03:33:48.986Z,14.75
2022-11-28T03:34:59.236Z,17.02
2022-11-28T03:36:16.030Z,15.18
2022-11-28T03:37:24.412Z,10.75
2022-11-28T03:38:36.221Z,10.18
2022-11-28T03:39:44.223Z,11.85
2022-11-28T03:40:50.949Z,10.05
2022-11-28T03:42:35.422Z,11.38
2022-11-28T03:43:43.387Z,8.10
2022-11-28T03:44:50.162Z,9.07
2022-11-28T03:45:59.306Z,11.35
2022-11-28T03:47:04.462Z,11.30
2022-11-28T03:48:26.513Z,9.80
2022-11-28T03:49:37.936Z,11.32
2022-11-28T03:50:53.334Z,9.48
2022-11-28T03:52:01.636Z,9.27
2022-11-28T03:53:09.934Z,8.00
2022-11-28T03:54:17.811Z,8.10
2022-11-28T03:55:30.572Z,8.13
2022-11-28T03:56:55.418Z,8.68
2022-11-28T03:58:11.686Z,10.73
2022-11-28T03:59:20.266Z,8.43
2022-11-28T04:00:22.802Z,10.30
2022-11-28T04:01:44.028Z,8.82
2022-11-28T04:03:15.870Z,7.50
2022-11-28T04:04:54.995Z,9.43
2022-11-28T04:06:05.145Z,8.10
2022-11-28T04:07:36.653Z,9.88
2022-11-28T04:08:45.664Z,8.68
2022-11-28T04:09:53.657Z,7.35
2022-11-28T04:11:21.103Z,12.60
2022-11-28T04:12:46.105Z,8.00
2022-11-28T04:14:00.545Z,8.45
2022-11-28T04:15:19.675Z,9.10
2022-11-28T04:16:53.591Z,8.40
2022-11-28T04:18:05.671Z,8.95
2022-11-28T04:19:22.770Z,8.00
2022-11-28T04:20:45.062Z,9.63
2022-11-28T04:21:52.191Z,7.95
2022-11-28T04:22:59.600Z,9.88
2022-11-28T04:24:06.970Z,9.68
2022-11-28T04:25:13.866Z,10.50
2022-11-28T04:26:22.150Z,9.20
2022-11-28T04:27:31.778Z,8.90
2022-11-28T04:28:36.190Z,10.57
2022-11-28T04:29:46.389Z,8.93
2022-11-28T04:30:51.929Z,10.02
2022-11-28T04:31:58.264Z,12.93
2022-11-28T04:33:05.062Z,10.65
2022-11-28T04:34:12.571Z,10.15
2022-11-28T04:35:39.900Z,12.23
2022-11-28T04:36:44.846Z,10.65
2022-11-28T04:37:48.898Z,9.63
2022-11-28T04:38:56.674Z,9.18
2022-11-28T04:40:00.830Z,9.77
2022-11-28T04:41:10.893Z,12.10
2022-11-28T04:42:18.092Z,11.68
2022-11-28T04:43:28.774Z,14.65
2022-11-28T04:44:40.198Z,12.18
2022-11-28T04:45:53.621Z,9.68
2022-11-28T04:46:57.499Z,13.25
2022-11-28T04:48:00.193Z,12.88
2022-11-28T04:49:02.569Z,8.32
2022-11-28T04:50:05.707Z,11.23
2022-11-28T04:51:32.382Z,10.52
2022-11-28T04:52:52.468Z,11.20
2022-11-28T04:54:06.570Z,11.05
2022-11-28T04:55:32.848Z,9.18
2022-11-28T04:56:44.621Z,10.80
2022-11-28T04:57:57.312Z,9.05
2022-11-28T04:59:00.928Z,10.27
2022-11-28T05:00:07.930Z,9.38
2022-11-28T05:01:14.302Z,10.95
2022-11-28T05:02:19.455Z,9.80
2022-11-28T05:03:22.782Z,10.15
2022-11-28T05:04:25.322Z,11.45
2022-11-28T05:05:29.798Z,13.07
2022-11-28T05:06:35.544Z,10.05
2022-11-28T05:07:37.772Z,9.45
2022-11-28T05:08:40.119Z,12.25
2022-11-28T05:09:42.354Z,12.00
2022-11-28T05:10:45.758Z,12.20
2022-11-28T05:11:47.932Z,13.43
2022-11-28T05:12:50.172Z,10.45
2022-11-28T05:13:52.762Z,11.80
2022-11-28T05:14:54.966Z,9.75
2022-11-28T05:16:00.891Z,9.15
2022-11-28T05:17:03.158Z,8.48
2022-11-28T05:18:05.811Z,8.98
2022-11-28T05:19:08.080Z,12.30
2022-11-28T05:20:10.660Z,12.15
2022-11-28T05:21:13.105Z,14.15
2022-11-28T05:22:15.316Z,13.98
2022-11-28T05:23:17.520Z,29.33
2022-11-28T05:24:19.962Z,15.95
2022-11-28T05:25:22.383Z,14.68
2022-11-28T05:26:25.929Z,16.80
2022-11-28T05:27:28.177Z,31.50
2022-11-28T05:28:30.346Z,28.95
2022-11-28T05:29:32.594Z,30.08
2022-11-28T05:30:34.795Z,25.80
2022-11-28T05:31:37.742Z,19.75
2022-11-28T05:32:39.953Z,21.35
2022-11-28T05:33:42.187Z,23.20
2022-11-28T05:34:44.625Z,17.92
2022-11-28T05:35:47.021Z,15.55
2022-11-28T05:36:49.231Z,15.88
2022-11-28T05:37:51.546Z,17.25
2022-11-28T05:38:53.777Z,15.13
2022-11-28T05:39:56.093Z,16.15
2022-11-28T05:40:59.531Z,21.05
2022-11-28T05:42:01.831Z,18.50
2022-11-28T05:43:04.259Z,26.95
2022-11-28T05:44:06.566Z,40.75
2022-11-28T05:45:09.301Z,35.50
2022-11-28T05:46:11.576Z,30.75
2022-11-28T05:47:15.725Z,24.60
2022-11-28T05:48:18.053Z,24.73
2022-11-28T05:49:21.603Z,26.08
2022-11-28T05:50:23.769Z,22.67
2022-11-28T05:51:26.094Z,21.02
2022-11-28T05:52:32.285Z,20.08
2022-11-28T05:53:34.872Z,25.13
2022-11-28T05:54:37.182Z,20.30
2022-11-28T05:55:40.125Z,21.05
2022-11-28T05:56:42.707Z,18.88
2022-11-28T05:57:45.049Z,16.95
2022-11-28T05:58:47.281Z,15.60
2022-11-28T05:59:49.568Z,13.82
2022-11-28T06:00:51.827Z,20.38
2022-11-28T06:01:54.043Z,16.60
2022-11-28T06:03:01.104Z,23.52
2022-11-28T06:04:04.162Z,14.40
2022-11-28T06:05:27.307Z,16.33
2022-11-28T06:06:32.175Z,18.83
2022-11-28T06:07:34.460Z,17.48
2022-11-28T06:13:17.717Z,13.02
2022-11-28T06:14:20.226Z,14.63
2022-11-28T06:15:22.459Z,13.13
2022-11-28T06:16:27.846Z,13.80
2022-11-28T06:17:31.514Z,13.60
2022-11-28T06:18:33.839Z,12.27
2022-11-28T06:19:36.082Z,12.23
2022-11-28T06:20:38.275Z,13.02
2022-11-28T06:21:40.582Z,11.25
2022-11-28T06:22:43.112Z,13.30
2022-11-28T06:23:45.273Z,12.35
2022-11-28T06:24:47.576Z,11.23
2022-11-28T06:25:49.813Z,9.60
2022-11-28T06:26:52.231Z,12.40
2022-11-28T06:27:54.410Z,10.02
2022-11-28T06:28:56.633Z,10.25
2022-11-28T06:29:58.926Z,10.90
2022-11-28T06:31:01.426Z,9.48
2022-11-28T06:32:04.389Z,9.48
2022-11-28T06:33:06.624Z,10.00
2022-11-28T06:34:11.746Z,11.00
2022-11-28T06:35:13.996Z,10.45
2022-11-28T06:36:17.804Z,11.15
2022-11-28T06:37:20.039Z,10.00
2022-11-28T06:38:22.226Z,10.75
2022-11-28T06:39:24.575Z,10.63
2022-11-28T06:40:26.865Z,12.07
2022-11-28T06:41:29.100Z,10.48
2022-11-28T06:42:31.406Z,11.85
2022-11-28T06:43:34.026Z,12.80
2022-11-28T06:44:36.301Z,16.13
2022-11-28T06:45:38.565Z,14.45
2022-11-28T06:46:41.453Z,11.05
2022-11-28T06:47:43.701Z,11.95
2022-11-28T06:48:47.172Z,13.65
2022-11-28T06:49:49.577Z,13.90
2022-11-28T06:50:52.814Z,13.43
2022-11-28T06:51:55.033Z,14.63
2022-11-28T06:52:57.308Z,12.13
2022-11-28T06:53:59.487Z,11.80
2022-11-28T06:55:01.760Z,12.32
2022-11-28T06:56:06.024Z,11.93
2022-11-28T06:57:08.292Z,11.80
2022-11-28T06:58:10.499Z,12.45
2022-11-28T06:59:13.072Z,10.15
2022-11-28T07:00:15.916Z,13.60
2022-11-28T07:01:20.233Z,10.70
2022-11-28T07:02:24.940Z,11.70
2022-11-28T07:03:27.213Z,13.00
2022-11-28T07:04:29.684Z,12.50
2022-11-28T07:05:32.096Z,13.32
2022-11-28T07:06:34.717Z,12.73
2022-11-28T07:07:50.268Z,14.30
2022-11-28T07:08:58.534Z,11.32
2022-11-28T07:10:00.727Z,9.95
2022-11-28T07:11:14.630Z,11.85
2022-11-28T07:12:17.291Z,12.50
2022-11-28T07:13:19.803Z,12.02
2022-11-28T07:14:22.076Z,15.57
2022-11-28T07:15:25.614Z,12.55
2022-11-28T07:16:31.500Z,17.75
2022-11-28T07:17:34.564Z,20.23
2022-11-28T07:18:36.880Z,19.02
2022-11-28T07:19:39.107Z,17.48
2022-11-28T07:20:41.342Z,17.30
2022-11-28T07:21:43.634Z,16.27
2022-11-28T07:22:48.108Z,19.20
2022-11-28T07:23:50.523Z,16.60
2022-11-28T07:24:52.745Z,18.88
2022-11-28T07:25:59.781Z,14.30
2022-11-28T07:27:02.039Z,15.30
2022-11-28T07:28:04.427Z,13.10
2022-11-28T07:29:07.484Z,14.18
2022-11-28T07:30:10.418Z,14.55
2022-11-28T07:31:21.806Z,16.88
2022-11-28T07:32:24.107Z,16.10
2022-11-28T07:33:26.291Z,16.98
2022-11-28T07:34:28.654Z,14.52
2022-11-28T07:35:33.679Z,15.70
2022-11-28T07:36:36.161Z,17.05
2022-11-28T07:37:38.416Z,23.83
2022-11-28T07:38:40.672Z,30.48
2022-11-28T07:39:44.597Z,33.22
2022-11-28T07:40:47.010Z,17.92
2022-11-28T07:41:49.558Z,15.48
2022-11-28T07:42:51.853Z,14.35
2022-11-28T07:44:02.485Z,12.85
2022-11-28T07:45:05.398Z,15.40
2022-11-28T07:46:11.096Z,13.48
2022-11-28T07:47:13.320Z,13.25
2022-11-28T07:48:15.517Z,16.45
2022-11-28T07:49:17.704Z,12.80
2022-11-28T07:50:19.945Z,14.23
2022-11-28T07:51:28.564Z,14.98
2022-11-28T07:52:30.754Z,14.05
2022-11-28T07:53:32.922Z,15.98
2022-11-28T07:54:35.112Z,14.98
2022-11-28T07:55:37.306Z,16.60
2022-11-28T07:57:10.946Z,18.02
2022-11-28T07:58:01.892Z,17.33
2022-11-28T07:59:04.563Z,15.80
2022-11-28T08:00:07.440Z,18.40
2022-11-28T08:01:19.927Z,13.90
2022-11-28T08:02:22.172Z,17.02
2022-11-28T08:03:24.479Z,17.52
2022-11-28T08:04:26.784Z,15.07
2022-11-28T08:05:29.134Z,15.13
2022-11-28T08:06:35.108Z,18.38
2022-11-28T08:07:37.484Z,13.85
2022-11-28T08:08:40.150Z,18.00
2022-11-28T08:09:42.569Z,13.00
2022-11-28T08:10:46.252Z,15.70
2022-11-28T08:11:49.207Z,13.80
2022-11-28T08:12:51.488Z,15.10
2022-11-28T08:13:56.404Z,15.27
2022-11-28T08:15:00.293Z,15.80
2022-11-28T08:16:06.953Z,14.15
2022-11-28T08:17:09.611Z,16.70
2022-11-28T08:18:12.950Z,14.60
2022-11-28T08:19:15.959Z,17.63
2022-11-28T08:20:18.227Z,15.80
2022-11-28T08:21:26.539Z,15.25
2022-11-28T08:22:28.708Z,13.77
2022-11-28T08:23:31.135Z,15.07
2022-11-28T08:24:33.427Z,17.88
2022-11-28T08:25:35.763Z,16.42
2022-11-28T08:26:38.271Z,14.82
2022-11-28T08:27:40.523Z,17.35
2022-11-28T08:28:43.287Z,17.42
2022-11-28T08:29:50.322Z,17.65
2022-11-28T08:30:54.287Z,17.83
2022-11-28T08:31:56.588Z,16.38
2022-11-28T08:32:59.253Z,16.50
2022-11-28T08:34:04.211Z,17.27
2022-11-28T08:35:07.208Z,16.38
2022-11-28T08:36:11.845Z,17.30
2022-11-28T08:37:14.058Z,15.65
2022-11-28T08:38:16.425Z,14.20
2022-11-28T08:39:26.234Z,14.18
2022-11-28T08:40:28.737Z,12.80
2022-11-28T08:41:31.006Z,16.88
2022-11-28T08:42:33.416Z,19.60
2022-11-28T08:43:37.179Z,29.50
2022-11-28T08:44:39.512Z,32.13
2022-11-28T08:45:41.935Z,24.75
2022-11-28T08:46:44.331Z,21.92
2022-11-28T08:47:46.592Z,20.20
2022-11-28T08:48:50.462Z,15.18
2022-11-28T08:49:52.661Z,24.10
2022-11-28T08:50:54.975Z,18.05
2022-11-28T08:51:57.269Z,15.65
2022-11-28T08:53:01.720Z,13.70
2022-11-28T08:54:09.815Z,15.43
2022-11-28T08:55:12.129Z,11.63
2022-11-28T08:56:14.331Z,13.85
2022-11-28T08:57:16.596Z,12.57
2022-11-28T08:58:18.844Z,14.48
2022-11-28T08:59:21.209Z,11.48
2022-11-28T09:00:23.539Z,13.32
2022-11-28T09:01:26.640Z,13.13
2022-11-28T09:02:29.005Z,11.77
2022-11-28T09:03:31.281Z,13.55
2022-11-28T09:04:33.543Z,12.98
2022-11-28T09:05:35.866Z,13.00
2022-11-28T09:06:41.111Z,9.57
2022-11-28T09:07:43.378Z,12.80
2022-11-28T09:08:46.046Z,13.90
2022-11-28T09:09:49.113Z,14.23
2022-11-28T09:10:51.458Z,11.73
2022-11-28T09:11:53.624Z,14.45
2022-11-28T09:12:55.779Z,11.25
2022-11-28T09:13:59.409Z,12.98
2022-11-28T09:15:01.673Z,16.35
2022-11-28T09:16:04.357Z,11.60
2022-11-28T09:17:06.625Z,16.20
2022-11-28T09:18:09.748Z,11.05
2022-11-28T09:19:12.014Z,11.75
2022-11-28T09:20:14.260Z,18.42
2022-11-28T09:21:16.684Z,12.82
2022-11-28T09:22:19.195Z,12.25
2022-11-28T09:23:21.447Z,10.70
2022-11-28T09:24:23.696Z,15.13
2022-11-28T09:25:25.954Z,13.00
2022-11-28T09:26:29.861Z,14.10
2022-11-28T09:27:32.040Z,14.70
2022-11-28T09:28:34.372Z,12.57
2022-11-28T09:29:36.567Z,16.30
2022-11-28T09:30:38.862Z,15.10
2022-11-28T09:31:47.005Z,13.88
2022-11-28T09:32:50.299Z,16.58
2022-11-28T09:33:53.375Z,14.85
2022-11-28T09:34:55.632Z,15.60
2022-11-28T09:35:58.390Z,17.33
2022-11-28T09:37:04.624Z,16.50
2022-11-28T09:38:07.596Z,18.48
2022-11-28T09:39:10.049Z,16.08
2022-11-28T09:40:31.383Z,15.40
2022-11-28T09:41:55.429Z,17.08
2022-11-28T09:43:00.990Z,13.13
2022-11-28T09:44:12.250Z,16.77
2022-11-28T09:45:23.392Z,15.40
2022-11-28T09:46:30.902Z,14.40
2022-11-28T09:47:36.886Z,11.52
2022-11-28T09:48:47.225Z,9.85
2022-11-28T09:49:59.835Z,15.10
2022-11-28T09:51:28.313Z,13.07
2022-11-28T09:52:43.200Z,12.43
2022-11-28T09:54:02.638Z,14.43
2022-11-28T09:55:40.100Z,11.98
2022-11-28T09:56:44.429Z,20.17
2022-11-28T09:57:51.486Z,14.43
2022-11-28T09:59:03.484Z,12.60
2022-11-28T10:00:11.170Z,13.15
2022-11-28T10:01:28.065Z,13.20
2022-11-28T10:02:43.814Z,12.85
2022-11-28T10:04:10.226Z,15.27
2022-11-28T10:05:37.033Z,10.82
2022-11-28T10:07:04.155Z,11.57
2022-11-28T10:08:43.054Z,15.98
2022-11-28T10:10:03.211Z,13.45
2022-11-28T10:11:44.512Z,16.20
2022-11-28T10:13:15.173Z,14.52
2022-11-28T10:15:00.907Z,15.60
2022-11-28T10:16:12.176Z,13.18
2022-11-28T10:17:26.335Z,13.52
2022-11-28T10:19:04.363Z,15.15
2022-11-28T10:20:19.937Z,10.20
2022-11-28T10:21:57.933Z,13.75
2022-11-28T10:23:28.256Z,12.05
2022-11-28T10:24:47.912Z,14.45
2022-11-28T10:26:16.872Z,13.98
2022-11-28T10:27:25.432Z,13.63
2022-11-28T10:28:38.726Z,12.10
2022-11-28T10:29:50.239Z,13.43
2022-11-28T10:31:21.351Z,15.15
2022-11-28T10:32:47.351Z,12.73
2022-11-28T10:34:02.443Z,14.48
2022-11-28T10:35:26.777Z,12.95
2022-11-28T10:36:51.958Z,12.02
2022-11-28T10:37:54.504Z,12.00
2022-11-28T10:38:57.658Z,14.80
2022-11-28T10:40:29.134Z,12.20
2022-11-28T10:41:36.874Z,12.45
2022-11-28T10:42:51.719Z,15.45
2022-11-28T10:44:21.307Z,14.20
2022-11-28T10:45:36.197Z,14.05
2022-11-28T10:46:57.696Z,16.73
2022-11-28T10:48:37.992Z,17.00
2022-11-28T10:50:00.902Z,13.43
2022-11-28T10:51:30.822Z,14.02
2022-11-28T10:52:53.501Z,15.15
2022-11-28T10:54:26.933Z,14.55
2022-11-28T10:55:47.688Z,14.98
2022-11-28T10:57:17.418Z,16.77
2022-11-28T10:58:46.836Z,14.10
2022-11-28T11:00:14.574Z,16.63
2022-11-28T11:01:17.377Z,14.25
2022-11-28T11:02:22.442Z,16.58
2022-11-28T11:03:29.781Z,20.88
2022-11-28T11:04:35.442Z,12.75
2022-11-28T11:05:37.910Z,20.10
2022-11-28T11:07:00.798Z,16.73
2022-11-28T11:08:11.530Z,17.17
2022-11-28T11:09:13.954Z,14.65
2022-11-28T11:10:22.782Z,14.75
2022-11-28T11:11:37.095Z,13.48
2022-11-28T11:12:40.722Z,14.88
2022-11-28T11:14:02.858Z,11.82
2022-11-28T11:15:31.293Z,11.93
2022-11-28T11:16:53.747Z,13.23
2022-11-28T11:17:56.419Z,12.77
2022-11-28T11:18:58.686Z,20.92
2022-11-28T11:20:01.170Z,14.65
2022-11-28T11:21:18.812Z,16.20
2022-11-28T11:22:28.600Z,60.58
2022-11-28T11:23:35.306Z,138.85
2022-11-28T11:24:40.641Z,100.85
2022-11-28T11:25:52.530Z,16.23
2022-11-28T11:27:22.328Z,18.38
2022-11-28T11:28:39.255Z,15.52
2022-11-28T11:29:44.044Z,9.68
2022-11-28T11:30:47.275Z,10.77
2022-11-28T11:31:53.773Z,12.05
2022-11-28T11:32:58.349Z,15.32
2022-11-28T11:34:18.532Z,11.88
2022-11-28T11:35:27.852Z,11.55
2022-11-28T11:36:33.170Z,15.13
2022-11-28T11:37:37.754Z,13.40
2022-11-28T11:38:40.221Z,15.90
2022-11-28T11:39:50.679Z,13.95
2022-11-28T11:40:53.057Z,19.15
2022-11-28T11:42:11.954Z,18.55
2022-11-28T11:43:32.496Z,13.63
2022-11-28T11:44:35.007Z,14.18
2022-11-28T11:45:37.470Z,13.55
2022-11-28T11:47:01.707Z,15.18
2022-11-28T11:48:04.283Z,10.65
2022-11-28T11:49:06.578Z,14.25
2022-11-28T11:50:20.346Z,14.63
2022-11-28T11:51:25.827Z,16.88
2022-11-28T11:52:28.213Z,16.98
2022-11-28T11:53:30.524Z,14.15
2022-11-28T11:54:32.956Z,12.90
2022-11-28T11:55:44.558Z,22.33
2022-11-28T11:57:00.703Z,27.50
2022-11-28T11:58:16.151Z,22.70
2022-11-28T11:59:24.302Z,18.45
2022-11-28T12:00:34.694Z,21.75
2022-11-28T12:01:39.273Z,23.80
2022-11-28T12:03:04.699Z,19.45
2022-11-28T12:04:43.313Z,17.80
2022-11-28T12:07:26.595Z,14.00
2022-11-28T12:08:36.284Z,14.52
2022-11-28T12:09:44.427Z,14.93
2022-11-28T12:10:53.515Z,12.70
2022-11-28T12:12:14.606Z,14.40
2022-11-28T12:13:21.911Z,14.90
2022-11-28T12:14:31.448Z,16.45
2022-11-28T12:15:36.301Z,15.88
2022-11-28T12:17:32.721Z,13.38
2022-11-28T12:18:43.801Z,13.88
2022-11-28T12:20:10.932Z,12.55
2022-11-28T12:21:17.945Z,11.18
2022-11-28T12:22:46.287Z,13.65
2022-11-28T12:24:15.715Z,11.98
2022-11-28T12:25:29.895Z,13.25
2022-11-28T12:27:04.104Z,12.40
2022-11-28T12:28:21.700Z,14.60
2022-11-28T12:29:38.254Z,14.48
2022-11-28T12:31:00.911Z,18.15
2022-11-28T12:32:32.699Z,11.77
2022-11-28T12:34:06.959Z,13.32
2022-11-28T12:35:28.229Z,16.00
2022-11-28T12:36:39.301Z,12.50
2022-11-28T12:38:14.803Z,21.23
2022-11-28T12:39:38.430Z,16.13
2022-11-28T12:40:49.816Z,15.95
2022-11-28T12:42:09.492Z,14.77
2022-11-28T12:43:46.716Z,14.45
2022-11-28T12:45:26.410Z,13.50
2022-11-28T12:46:52.731Z,14.85
2022-11-28T12:48:08.878Z,16.77
2022-11-28T12:49:44.271Z,14.70
2022-11-28T12:50:52.706Z,15.63
2022-11-28T12:52:00.757Z,17.42
2022-11-28T12:53:36.753Z,18.88
2022-11-28T12:54:56.931Z,13.48
2022-11-28T12:56:24.743Z,15.15
2022-11-28T12:57:44.970Z,12.57
2022-11-28T12:58:55.012Z,13.25
2022-11-28T13:00:09.707Z,11.48
2022-11-28T13:01:32.135Z,16.80
2022-11-28T13:02:59.615Z,12.98
2022-11-28T13:04:25.127Z,15.88
2022-11-28T13:05:39.635Z,15.02
2022-11-28T13:07:02.836Z,13.85
2022-11-28T13:08:54.242Z,14.13
2022-11-28T13:10:26.577Z,15.90
2022-11-28T13:11:43.073Z,17.70
2022-11-28T13:13:13.054Z,16.17
2022-11-28T13:14:47.950Z,17.65
2022-11-28T13:15:59.434Z,15.75
2022-11-28T13:17:27.381Z,15.52
2022-11-28T13:18:48.508Z,16.98
2022-11-28T13:19:56.529Z,18.60
2022-11-28T13:21:09.361Z,15.23
2022-11-28T13:22:15.391Z,15.88
2022-11-28T13:23:28.456Z,16.25
2022-11-28T13:24:39.525Z,18.95
2022-11-28T13:25:51.808Z,14.57
2022-11-28T13:29:40.918Z,15.45
2022-11-28T13:30:59.682Z,14.85
2022-11-28T13:32:14.915Z,15.45
2022-11-28T13:33:54.575Z,30.58
2022-11-28T13:34:58.648Z,15.85
2022-11-28T13:36:02.182Z,17.90
2022-11-28T13:39:08.191Z,16.65
2022-11-28T13:40:20.499Z,22.13
2022-11-28T13:42:09.640Z,23.83
2022-11-28T13:43:11.617Z,62.58
2022-11-28T13:44:42.501Z,88.90
2022-11-28T13:45:46.881Z,19.65
2022-11-28T13:46:49.319Z,22.13
2022-11-28T13:47:51.654Z,17.75
2022-11-28T13:49:21.433Z,15.23
2022-11-28T13:50:36.343Z,11.65
2022-11-28T13:51:38.804Z,10.38
2022-11-28T13:52:43.787Z,13.93
2022-11-28T13:53:48.959Z,11.05
2022-11-28T13:54:54.498Z,12.38
2022-11-28T13:56:05.615Z,12.93
2022-11-28T13:57:16.599Z,11.43
2022-11-28T13:58:50.861Z,12.43
2022-11-28T13:59:55.947Z,12.65
2022-11-28T14:01:06.690Z,11.10
2022-11-28T14:02:36.005Z,15.77
2022-11-28T14:03:46.990Z,12.05
2022-11-28T14:04:49.784Z,13.00
2022-11-28T14:05:58.491Z,15.02
2022-11-28T14:07:07.232Z,15.18
2022-11-28T14:08:35.539Z,16.08
2022-11-28T14:10:24.179Z,14.25
2022-11-28T14:12:10.011Z,12.77
2022-11-28T14:13:30.892Z,13.82
2022-11-28T14:14:54.779Z,11.02
2022-11-28T14:16:12.095Z,12.35
2022-11-28T14:17:26.597Z,11.90
2022-11-28T14:20:12.090Z,14.48
2022-11-28T14:21:41.154Z,11.90
2022-11-28T14:23:20.185Z,16.83
2022-11-28T14:24:45.074Z,13.25
2022-11-28T14:25:52.353Z,13.43
2022-11-28T14:27:00.827Z,16.50
2022-11-28T14:28:16.472Z,13.70
2022-11-28T14:29:24.723Z,12.35
2022-11-28T14:30:33.360Z,14.82
2022-11-28T14:31:39.786Z,13.02
2022-11-28T14:32:43.434Z,20.77
2022-11-28T14:33:47.488Z,15.70
2022-11-28T14:34:50.065Z,11.00
2022-11-28T14:35:52.391Z,15.05
2022-11-28T14:37:34.635Z,14.60
2022-11-28T14:38:36.800Z,12.50
2022-11-28T14:39:39.344Z,10.73
2022-11-28T14:41:11.517Z,10.35
2022-11-28T14:42:30.458Z,17.50
2022-11-28T14:43:46.759Z,11.73
2022-11-28T14:45:07.909Z,10.60
2022-11-28T14:46:16.670Z,20.95
2022-11-28T14:47:34.471Z,13.15
2022-11-28T14:48:39.916Z,11.82
2022-11-28T14:49:42.429Z,24.48
2022-11-28T14:50:52.536Z,13.90
2022-11-28T14:52:30.924Z,19.92
2022-11-28T14:53:37.314Z,24.15
2022-11-28T14:54:43.328Z,13.50
2022-11-28T14:55:46.115Z,11.50
2022-11-28T14:56:52.920Z,15.77
2022-11-28T14:58:01.785Z,15.15
2022-11-28T14:59:04.813Z,13.45
2022-11-28T15:00:16.211Z,41.15
2022-11-28T15:01:44.708Z,69.95
2022-11-28T15:03:09.342Z,67.80
2022-11-28T15:04:31.908Z,19.30
2022-11-28T15:06:50.319Z,17.95
2022-11-28T15:08:12.067Z,15.18
2022-11-28T15:09:45.993Z,13.23
2022-11-28T15:11:23.504Z,13.00
2022-11-28T15:12:37.226Z,12.18
2022-11-28T15:13:58.020Z,19.23
2022-11-28T15:15:01.965Z,10.60
2022-11-28T15:16:14.332Z,12.80
2022-11-28T15:17:21.552Z,16.15
2022-11-28T15:18:25.954Z,12.52
2022-11-28T15:19:38.960Z,14.18
2022-11-28T15:20:48.805Z,17.65
2022-11-28T15:21:54.321Z,18.05
2022-11-28T15:22:57.117Z,15.63
2022-11-28T15:24:00.299Z,17.40
2022-11-28T15:25:03.212Z,13.55
2022-11-28T15:26:07.004Z,16.77
2022-11-28T15:27:12.584Z,17.73
2022-11-28T15:28:20.530Z,20.52
2022-11-28T15:29:27.567Z,20.30
2022-11-28T15:30:29.830Z,20.70
2022-11-28T15:31:33.540Z,18.08
2022-11-28T15:32:35.977Z,13.80
2022-11-28T15:33:39.588Z,15.90
2022-11-28T15:34:43.335Z,15.48
2022-11-28T15:35:57.334Z,18.52
2022-11-28T15:37:06.653Z,10.88
2022-11-28T15:38:14.897Z,15.32
2022-11-28T15:39:27.137Z,14.60
2022-11-28T15:40:32.569Z,15.95
2022-11-28T15:41:34.926Z,16.05
2022-11-28T15:42:38.832Z,17.33
2022-11-28T15:43:45.821Z,12.15
2022-11-28T15:44:58.269Z,14.43
2022-11-28T15:47:05.369Z,14.80
2022-11-28T15:48:52.776Z,15.18
2022-11-28T15:50:16.233Z,16.30
2022-11-28T15:51:24.164Z,14.50
2022-11-28T15:52:29.011Z,12.27
2022-11-28T15:53:32.153Z,16.92
2022-11-28T15:54:41.588Z,15.15
2022-11-28T15:55:44.821Z,16.75
2022-11-28T15:57:01.822Z,13.35
2022-11-28T15:58:20.963Z,17.90
2022-11-28T15:59:23.986Z,16.67
2022-11-28T16:00:26.949Z,15.43
2022-11-28T16:01:31.534Z,16.20
2022-11-28T16:02:36.493Z,27.45
2022-11-28T16:04:05.737Z,26.05
2022-11-28T16:05:13.787Z,42.63
2022-11-28T16:06:18.574Z,42.25
2022-11-28T16:07:22.095Z,39.58
2022-11-28T16:08:33.699Z,26.50
2022-11-28T16:09:38.510Z,25.42
2022-11-28T16:10:44.368Z,25.50
2022-11-28T16:11:52.618Z,25.10
2022-11-28T16:13:04.820Z,27.63
2022-11-28T16:15:20.059Z,27.10
2022-11-28T16:16:27.217Z,25.30
2022-11-28T16:17:33.656Z,21.92
2022-11-28T16:18:36.192Z,22.33
2022-11-28T16:19:39.251Z,26.13
2022-11-28T16:20:43.524Z,22.20
2022-11-28T16:21:55.113Z,22.35
2022-11-28T16:22:59.797Z,21.98
2022-11-28T16:24:04.174Z,24.48
2022-11-28T16:25:20.464Z,20.05
2022-11-28T16:26:30.490Z,21.20
2022-11-28T16:27:39.005Z,23.30
2022-11-28T16:28:41.889Z,19.95
2022-11-28T16:29:46.642Z,19.80
2022-11-28T16:30:51.410Z,22.20
2022-11-28T16:31:54.082Z,22.33
2022-11-28T16:32:57.572Z,24.73
2022-11-28T16:34:01.476Z,24.75
2022-11-28T16:35:06.006Z,18.42
2022-11-28T16:36:33.950Z,20.05
2022-11-28T16:37:36.390Z,20.35
2022-11-28T16:38:40.258Z,18.27
2022-11-28T16:39:42.992Z,16.48
2022-11-28T16:40:45.596Z,21.98
2022-11-28T16:42:05.530Z,24.88
2022-11-28T16:43:35.902Z,17.00
2022-11-28T16:44:38.433Z,22.35
2022-11-28T16:45:40.992Z,26.45
2022-11-28T16:46:57.949Z,33.50
2022-11-28T16:48:08.741Z,33.25
2022-11-28T16:49:32.811Z,31.15
2022-11-28T16:50:37.167Z,27.05
2022-11-28T16:51:41.230Z,25.50
2022-11-28T16:52:47.942Z,18.02
2022-11-28T16:53:55.646Z,22.65
2022-11-28T16:54:58.768Z,24.00
2022-11-28T16:56:01.474Z,16.73
2022-11-28T16:57:17.001Z,14.27
2022-11-28T16:58:22.301Z,13.38
2022-11-28T16:59:25.204Z,14.73
2022-11-28T17:00:27.656Z,18.25
2022-11-28T17:01:31.028Z,16.73
2022-11-28T17:02:33.495Z,13.50
2022-11-28T17:03:45.262Z,19.30
2022-11-28T17:04:50.322Z,16.50
2022-11-28T17:05:53.120Z,15.50
2022-11-28T17:06:58.299Z,16.95
2022-11-28T17:08:01.799Z,19.30
2022-11-28T17:09:10.731Z,18.15
2022-11-28T17:10:13.707Z,21.40
2022-11-28T17:11:20.473Z,20.42
2022-11-28T17:12:28.736Z,33.30
2022-11-28T17:13:31.220Z,65.85
2022-11-28T17:14:34.159Z,117.90
2022-11-28T17:15:36.698Z,61.42
2022-11-28T17:16:40.196Z,20.83
2022-11-28T17:17:46.099Z,26.42
2022-11-28T17:18:49.462Z,33.90
2022-11-28T17:19:52.674Z,91.18
2022-11-28T17:20:55.243Z,367.25
2022-11-28T17:21:59.727Z,588.97
2022-11-28T17:23:04.363Z,450.40
2022-11-28T17:24:11.840Z,286.98
2022-11-28T17:25:20.945Z,523.95
2022-11-28T17:26:23.474Z,262.83
2022-11-28T17:27:26.108Z,203.63